Dendermonde, Belgium
Current Conditions -  °F | °C
As of 10:50 AM on Wednesday 26 Nov 2014 (Local Time) from EBAW Reporting Station
Broken Clouds Broken Clouds  
Wind Chill:   Ceiling: 2100
Heat Index:   Visibility: 5mi
Dew Point:   Wind: 7mph
Humidity: 87%   Direction: 100°E
Pressure: 29.94"   Gusts: NA
Location:  51.03°N, 4.1°E
Report Text: EBAW 260950Z 10006KT 8000 BKN021 06/04 Q1014 NOSIG
Loading
Personal Weather Stations






























Interactive Weather Map New forecast layout! Learn more

10-Day Weather Forecast

Advertisements
Track Severe Weather on mobile